createdAt,value
2018-11-20T00:00:30.956Z,74.75
2018-11-20T00:03:37.589Z,73.96
2018-11-20T00:06:41.511Z,73.99
2018-11-20T00:09:26.553Z,74.16
2018-11-20T00:12:08.230Z,73.78
2018-11-20T00:14:52.984Z,73.13
2018-11-20T00:17:35.461Z,72.67
2018-11-20T00:20:22.685Z,72.52
2018-11-20T00:23:13.923Z,71.80
2018-11-20T00:26:05.349Z,71.29
2018-11-20T00:29:02.810Z,71.29
2018-11-20T00:31:49.637Z,71.24
2018-11-20T00:34:38.012Z,71.20
2018-11-20T00:37:18.311Z,70.67
2018-11-20T00:40:05.275Z,70.82
2018-11-20T00:42:52.218Z,70.73
2018-11-20T00:45:58.576Z,70.50
2018-11-20T00:48:45.751Z,70.76
2018-11-20T00:51:43.069Z,70.71
2018-11-20T00:54:30.306Z,70.15
2018-11-20T00:57:11.024Z,70.66
2018-11-20T00:59:53.560Z,70.78
2018-11-20T01:02:41.027Z,70.73
2018-11-20T01:05:35.286Z,70.38
2018-11-20T01:08:29.807Z,71.04
2018-11-20T01:11:27.476Z,70.55
2018-11-20T01:14:14.454Z,71.00
2018-11-20T01:17:12.780Z,70.77
2018-11-20T01:20:10.602Z,70.98
2018-11-20T01:23:11.243Z,71.31
2018-11-20T01:25:51.095Z,71.20
2018-11-20T01:28:39.929Z,71.37
2018-11-20T01:31:31.763Z,71.43
2018-11-20T01:34:23.096Z,72.03
2018-11-20T01:37:14.458Z,72.34
2018-11-20T01:39:59.343Z,71.86
2018-11-20T01:42:46.921Z,72.39
2018-11-20T01:45:33.830Z,71.79
2018-11-20T01:48:40.576Z,71.55
2018-11-20T01:51:29.640Z,71.58
2018-11-20T01:54:17.108Z,71.32
2018-11-20T01:57:04.084Z,71.06
2018-11-20T01:59:58.007Z,71.32
2018-11-20T02:02:49.361Z,71.61
2018-11-20T02:05:49.627Z,72.01
2018-11-20T02:08:37.124Z,71.62
2018-11-20T02:11:24.528Z,71.89
2018-11-20T02:14:20.521Z,71.72
2018-11-20T02:17:20.436Z,72.33
2018-11-20T02:20:11.568Z,72.55
2018-11-20T02:23:05.500Z,72.54
2018-11-20T02:25:53.155Z,72.99
2018-11-20T02:28:44.525Z,73.30
2018-11-20T02:31:31.799Z,73.50
2018-11-20T02:34:25.493Z,74.00
2018-11-20T02:37:13.668Z,73.53
2018-11-20T02:40:00.612Z,73.79
2018-11-20T02:42:49.084Z,74.21
2018-11-20T02:45:36.339Z,74.06
2018-11-20T02:48:40.054Z,73.48
2018-11-20T02:51:27.639Z,73.54
2018-11-20T02:54:16.641Z,73.25
2018-11-20T02:57:16.899Z,73.45
2018-11-20T03:00:08.177Z,73.66
2018-11-20T03:03:05.520Z,73.46
2018-11-20T03:05:53.864Z,73.65
2018-11-20T03:08:45.533Z,73.69
2018-11-20T03:11:28.166Z,73.34
2018-11-20T03:14:25.632Z,73.04
2018-11-20T03:17:26.110Z,72.79
2018-11-20T03:20:12.970Z,72.52
2018-11-20T03:23:04.046Z,72.88
2018-11-20T03:26:18.206Z,72.86
2018-11-20T03:29:13.436Z,72.75
2018-11-20T03:32:04.832Z,72.33
2018-11-20T03:34:47.059Z,72.41
2018-11-20T03:37:34.640Z,72.21
2018-11-20T03:40:26.821Z,72.05
2018-11-20T03:43:14.977Z,71.87
2018-11-20T03:46:04.645Z,72.19
2018-11-20T03:48:53.434Z,72.08
2018-11-20T03:51:47.572Z,72.01
2018-11-20T03:54:34.873Z,72.16
2018-11-20T03:57:22.056Z,72.29
2018-11-20T04:00:06.237Z,72.50
2018-11-20T04:03:12.736Z,73.15
2018-11-20T04:06:03.872Z,73.70
2018-11-20T04:08:41.084Z,74.35
2018-11-20T04:11:19.748Z,74.79
2018-11-20T04:14:08.635Z,75.51
2018-11-20T04:16:55.799Z,76.32
2018-11-20T04:19:46.071Z,77.28
2018-11-20T04:22:33.249Z,78.48
2018-11-20T04:25:33.675Z,78.93
2018-11-20T04:28:19.740Z,79.47
2018-11-20T04:31:42.666Z,79.60
2018-11-20T04:34:28.073Z,80.12
2018-11-20T04:37:21.810Z,80.73
2018-11-20T04:40:16.176Z,80.77
2018-11-20T04:43:14.937Z,80.95
2018-11-20T04:46:07.280Z,81.28
2018-11-20T04:48:54.379Z,81.19
2018-11-20T04:51:58.018Z,81.20
2018-11-20T04:54:45.490Z,81.30
2018-11-20T04:57:32.404Z,81.03
2018-11-20T05:00:32.927Z,80.89
2018-11-20T05:03:20.356Z,80.29
2018-11-20T05:06:07.338Z,80.44
2018-11-20T05:08:54.467Z,80.11
2018-11-20T05:11:42.314Z,80.07
2018-11-20T05:14:43.025Z,80.27
2018-11-20T05:17:28.207Z,80.48
2018-11-20T05:20:16.004Z,80.81
2018-11-20T05:23:12.259Z,80.85
2018-11-20T05:26:03.945Z,81.31
2018-11-20T05:28:51.069Z,80.70
2018-11-20T05:31:42.338Z,80.50
2018-11-20T05:34:30.987Z,80.59
2018-11-20T05:37:31.824Z,80.88
2018-11-20T05:40:19.140Z,80.17
2018-11-20T05:43:01.510Z,80.11
2018-11-20T05:45:49.047Z,80.05
2018-11-20T05:48:37.804Z,78.84
2018-11-20T05:51:26.585Z,78.52
2018-11-20T05:54:09.981Z,78.45
2018-11-20T05:56:58.720Z,79.07
2018-11-20T05:59:53.669Z,77.94
2018-11-20T06:03:00.214Z,77.37
2018-11-20T06:05:47.592Z,78.03
2018-11-20T06:08:48.216Z,77.52
2018-11-20T06:11:35.499Z,77.88
2018-11-20T06:14:26.909Z,77.91
2018-11-20T06:17:14.746Z,78.12
2018-11-20T06:20:09.151Z,77.90
2018-11-20T06:22:50.687Z,77.92
2018-11-20T06:25:37.683Z,77.95
2018-11-20T06:28:25.604Z,77.17
2018-11-20T06:31:16.783Z,76.60
2018-11-20T06:34:05.873Z,76.95
2018-11-20T06:37:06.397Z,76.88
2018-11-20T06:39:58.069Z,76.27
2018-11-20T06:42:45.548Z,75.85
2018-11-20T06:45:42.979Z,75.95
2018-11-20T06:48:31.377Z,76.44
2018-11-20T06:51:22.245Z,76.60
2018-11-20T06:54:13.846Z,76.59
2018-11-20T06:57:00.935Z,76.61
2018-11-20T07:00:08.043Z,76.43
2018-11-20T07:02:54.867Z,76.52
2018-11-20T07:05:37.316Z,76.58
2018-11-20T07:08:44.106Z,76.72
2018-11-20T07:11:30.976Z,76.78
2018-11-20T07:14:27.514Z,76.80
2018-11-20T07:17:36.429Z,76.65
2018-11-20T07:20:21.531Z,76.67
2018-11-20T07:23:10.994Z,77.11
2018-11-20T07:26:03.107Z,77.11
2018-11-20T07:28:57.435Z,77.04
2018-11-20T07:31:48.560Z,77.15
2018-11-20T07:34:35.705Z,77.68
2018-11-20T07:37:36.038Z,77.30
2018-11-20T07:40:43.720Z,77.43
2018-11-20T07:43:35.226Z,77.73
2018-11-20T07:46:21.916Z,77.66
2018-11-20T07:49:16.753Z,77.56
2018-11-20T07:52:17.245Z,77.66
2018-11-20T07:55:04.559Z,76.98
2018-11-20T07:58:02.370Z,77.20
2018-11-20T08:00:56.776Z,77.04
2018-11-20T08:03:34.540Z,77.14
2018-11-20T08:06:21.875Z,77.06
2018-11-20T08:08:59.269Z,76.92
2018-11-20T08:11:47.684Z,77.08
2018-11-20T08:14:48.326Z,76.79
2018-11-20T08:17:30.885Z,76.94
2018-11-20T08:20:17.815Z,76.96
2018-11-20T08:23:05.260Z,76.63
2018-11-20T08:25:56.678Z,76.23
2018-11-20T08:28:57.217Z,76.10
2018-11-20T08:31:51.623Z,75.86
2018-11-20T08:34:38.614Z,76.03
2018-11-20T08:37:32.788Z,75.66
2018-11-20T08:40:19.767Z,75.45
2018-11-20T08:43:06.750Z,75.26
2018-11-20T08:46:04.206Z,75.15
2018-11-20T08:48:53.070Z,74.65
2018-11-20T08:51:50.350Z,74.32
2018-11-20T08:54:41.899Z,74.06
2018-11-20T08:57:42.041Z,74.19
2018-11-20T09:00:33.089Z,73.85
2018-11-20T09:03:24.554Z,73.79
2018-11-20T09:06:12.961Z,73.85
2018-11-20T09:09:00.030Z,73.76
2018-11-20T09:11:48.491Z,74.25
2018-11-20T09:14:49.022Z,74.53
2018-11-20T09:17:37.812Z,74.46
2018-11-20T09:20:32.678Z,74.90
2018-11-20T09:23:26.960Z,74.95
2018-11-20T09:26:14.084Z,74.50
2018-11-20T09:29:01.557Z,74.98
2018-11-20T09:31:48.869Z,74.40
2018-11-20T09:34:43.523Z,74.64
2018-11-20T09:37:28.716Z,74.90
2018-11-20T09:40:51.773Z,74.48
2018-11-20T09:43:41.394Z,75.12
2018-11-20T09:46:33.437Z,74.56
2018-11-20T09:49:21.796Z,74.76
2018-11-20T09:52:16.227Z,74.37
2018-11-20T09:55:03.293Z,74.86
2018-11-20T09:57:50.431Z,74.78
2018-11-20T10:00:37.561Z,75.08
2018-11-20T10:03:35.024Z,75.23
2018-11-20T10:06:32.424Z,75.07
2018-11-20T10:09:15.177Z,75.18
2018-11-20T10:12:06.216Z,75.00
2018-11-20T10:15:07.014Z,75.33
2018-11-20T10:18:02.094Z,75.58
2018-11-20T10:20:49.165Z,75.33
2018-11-20T10:23:49.791Z,75.51
2018-11-20T10:26:44.800Z,75.79
2018-11-20T10:29:47.952Z,75.90
2018-11-20T10:32:49.601Z,75.50
2018-11-20T10:35:53.818Z,75.84
2018-11-20T10:38:57.788Z,75.52
2018-11-20T10:41:44.885Z,75.98
2018-11-20T10:44:32.224Z,75.81
2018-11-20T10:47:32.896Z,75.29
2018-11-20T10:50:39.658Z,75.62
2018-11-20T10:53:27.062Z,75.55
2018-11-20T10:56:31.256Z,75.34
2018-11-20T10:59:18.238Z,75.35
2018-11-20T11:02:05.252Z,75.60
2018-11-20T11:04:52.247Z,75.22
2018-11-20T11:07:52.385Z,75.26
2018-11-20T11:10:57.228Z,75.05
2018-11-20T11:13:44.470Z,75.23
2018-11-20T11:16:41.974Z,75.14
2018-11-20T11:19:28.963Z,75.22
2018-11-20T11:22:17.356Z,75.14
2018-11-20T11:25:05.900Z,75.47
2018-11-20T11:27:54.899Z,75.69
2018-11-20T11:30:58.276Z,75.14
2018-11-20T11:33:41.255Z,74.97
2018-11-20T11:36:32.596Z,74.94
2018-11-20T11:39:12.036Z,74.68
2018-11-20T11:41:50.543Z,75.06
2018-11-20T11:44:37.148Z,75.01
2018-11-20T11:47:37.636Z,74.51
2018-11-20T11:50:28.962Z,74.42
2018-11-20T11:53:16.250Z,74.47
2018-11-20T11:56:03.727Z,74.45
2018-11-20T11:58:52.084Z,74.58
2018-11-20T12:04:35.574Z,74.22
2018-11-20T12:07:20.661Z,74.22
2018-11-20T12:10:07.771Z,73.98
2018-11-20T12:12:56.237Z,74.06
2018-11-20T12:15:53.836Z,73.73
2018-11-20T12:18:42.212Z,73.67
2018-11-20T12:21:21.330Z,73.84
2018-11-20T12:24:30.265Z,73.54
2018-11-20T12:27:22.427Z,73.49
2018-11-20T12:30:10.781Z,73.49
2018-11-20T12:33:14.756Z,73.22
2018-11-20T12:36:14.108Z,73.38
2018-11-20T12:39:19.848Z,73.39
2018-11-20T12:42:04.950Z,73.31
2018-11-20T12:45:00.743Z,73.49
2018-11-20T12:47:51.750Z,73.13
2018-11-20T12:50:39.405Z,73.29
2018-11-20T12:53:27.834Z,73.23
2018-11-20T12:56:19.531Z,73.47
2018-11-20T12:59:20.036Z,73.17
2018-11-20T13:02:10.569Z,72.81
2018-11-20T13:04:58.999Z,73.07
2018-11-20T13:07:56.464Z,73.17
2018-11-20T13:10:50.698Z,73.06
2018-11-20T13:13:42.016Z,73.57
2018-11-20T13:16:42.348Z,73.08
2018-11-20T13:19:43.334Z,73.20
2018-11-20T13:22:33.425Z,73.14
2018-11-20T13:25:18.309Z,73.76
2018-11-20T13:28:06.669Z,73.28
2018-11-20T13:31:01.102Z,73.83
2018-11-20T13:33:52.255Z,73.75
2018-11-20T13:36:49.424Z,73.52
2018-11-20T13:39:37.001Z,73.51
2018-11-20T13:42:37.281Z,73.76
2018-11-20T13:45:23.428Z,73.80
2018-11-20T13:48:20.115Z,74.13
2018-11-20T13:51:20.906Z,73.97
2018-11-20T13:54:14.723Z,73.79
2018-11-20T13:57:01.666Z,74.20
2018-11-20T13:59:48.768Z,74.14
2018-11-20T14:02:49.570Z,73.78
2018-11-20T14:05:50.202Z,73.84
2018-11-20T14:08:37.676Z,73.95
2018-11-20T14:11:24.418Z,74.05
2018-11-20T14:14:15.798Z,74.03
2018-11-20T14:17:08.642Z,73.91
2018-11-20T14:19:54.274Z,74.23
2018-11-20T14:22:46.047Z,74.15
2018-11-20T14:25:59.577Z,74.12
2018-11-20T14:28:38.101Z,74.17
2018-11-20T14:31:29.648Z,73.89
2018-11-20T14:34:16.712Z,73.79
2018-11-20T14:37:17.587Z,73.85
2018-11-20T14:40:05.929Z,74.11
2018-11-20T14:42:53.201Z,74.10
2018-11-20T14:45:56.661Z,74.31
2018-11-20T14:48:50.765Z,74.50
2018-11-20T14:51:36.155Z,74.41
2018-11-20T14:54:31.720Z,74.52
2018-11-20T14:57:18.895Z,74.64
2018-11-20T15:00:22.549Z,74.62
2018-11-20T15:03:19.911Z,74.60
2018-11-20T15:06:07.577Z,74.59
2018-11-20T15:09:01.979Z,74.81
2018-11-20T15:11:49.051Z,74.94
2018-11-20T15:14:32.447Z,74.79
2018-11-20T15:17:20.989Z,75.02
2018-11-20T15:20:08.036Z,74.93
2018-11-20T15:23:14.704Z,75.12
2018-11-20T15:26:05.583Z,75.45
2018-11-20T15:28:56.910Z,75.71
2018-11-20T15:31:44.137Z,76.17
2018-11-20T15:34:41.612Z,76.97
2018-11-20T15:37:32.876Z,77.30
2018-11-20T15:40:24.608Z,77.81
2018-11-20T15:43:11.018Z,78.61
2018-11-20T15:45:56.174Z,79.32
2018-11-20T15:48:53.617Z,80.45
2018-11-20T15:51:40.880Z,81.73
2018-11-20T15:54:35.146Z,82.56
2018-11-20T15:57:35.694Z,83.78
2018-11-20T16:00:23.923Z,84.52
2018-11-20T16:03:16.095Z,85.61
2018-11-20T16:06:07.586Z,86.03
2018-11-20T16:08:54.273Z,86.95
2018-11-20T16:11:41.321Z,87.60
2018-11-20T16:14:39.640Z,88.19
2018-11-20T16:17:26.557Z,88.91
2018-11-20T16:20:12.523Z,89.26
2018-11-20T16:22:59.843Z,89.98
2018-11-20T16:25:54.891Z,90.27
2018-11-20T16:28:43.270Z,90.58
2018-11-20T16:31:32.573Z,90.52
2018-11-20T16:34:13.020Z,90.57
2018-11-20T16:36:56.705Z,90.96
2018-11-20T16:39:45.127Z,91.05
2018-11-20T16:42:32.846Z,91.08
2018-11-20T16:45:20.102Z,91.25
2018-11-20T16:48:11.571Z,91.65
2018-11-20T16:51:03.034Z,91.93
2018-11-20T16:53:44.841Z,92.00
2018-11-20T16:56:42.912Z,92.42
2018-11-20T16:59:40.220Z,92.52
2018-11-20T17:02:34.333Z,92.87
2018-11-20T17:05:25.743Z,92.95
2018-11-20T17:08:32.396Z,93.60
2018-11-20T17:11:14.215Z,93.82
2018-11-20T17:14:01.446Z,94.06
2018-11-20T17:16:50.106Z,94.32
2018-11-20T17:19:38.661Z,94.52
2018-11-20T17:22:26.851Z,94.95
2018-11-20T17:25:13.722Z,94.95
2018-11-20T17:28:05.018Z,95.12
2018-11-20T17:30:56.039Z,95.12
2018-11-20T17:33:59.342Z,95.56
2018-11-20T17:37:03.302Z,95.52
2018-11-20T17:39:50.496Z,95.77
2018-11-20T17:42:53.560Z,95.82
2018-11-20T17:45:40.332Z,95.73
2018-11-20T17:48:27.513Z,95.80
2018-11-20T17:51:27.789Z,95.63
2018-11-20T17:54:07.092Z,95.67
2018-11-20T17:56:53.721Z,95.85
2018-11-20T17:59:31.931Z,95.62
2018-11-20T18:02:35.940Z,95.29
2018-11-20T18:05:36.589Z,95.37
2018-11-20T18:08:32.614Z,95.23
2018-11-20T18:11:30.607Z,95.12
2018-11-20T18:14:06.927Z,95.47
2018-11-20T18:16:58.039Z,95.47
2018-11-20T18:19:50.254Z,95.74
2018-11-20T18:22:47.706Z,95.84
2018-11-20T18:25:41.964Z,95.63
2018-11-20T18:28:36.137Z,95.50
2018-11-20T18:31:27.591Z,95.48
2018-11-20T18:34:28.536Z,95.61
2018-11-20T18:37:16.285Z,95.39
2018-11-20T18:40:10.830Z,95.16
2018-11-20T18:43:11.646Z,95.27
2018-11-20T18:45:57.984Z,95.13
2018-11-20T18:48:46.695Z,94.90
2018-11-20T18:51:26.928Z,94.77
2018-11-20T18:54:10.673Z,94.75
2018-11-20T18:57:05.167Z,94.76
2018-11-20T18:59:59.096Z,94.54
2018-11-20T19:03:41.782Z,94.51
2018-11-20T19:06:32.446Z,94.28
2018-11-20T19:09:26.291Z,94.08
2018-11-20T19:12:08.470Z,93.93
2018-11-20T19:14:55.940Z,93.81
2018-11-20T19:17:46.635Z,93.72
2018-11-20T19:20:23.281Z,93.66
2018-11-20T19:23:15.461Z,93.45
2018-11-20T19:26:01.693Z,93.36
2018-11-20T19:28:45.805Z,93.46
2018-11-20T19:31:53.272Z,93.25
2018-11-20T19:34:32.190Z,93.19
2018-11-20T19:37:25.418Z,92.87
2018-11-20T19:40:28.401Z,92.82
2018-11-20T19:43:16.520Z,92.85
2018-11-20T19:46:07.175Z,92.71
2018-11-20T19:48:55.037Z,92.69
2018-11-20T19:52:01.548Z,92.22
2018-11-20T19:54:52.133Z,92.40
2018-11-20T19:57:38.327Z,92.17
2018-11-20T20:00:37.734Z,92.46
2018-11-20T20:03:28.323Z,92.31
2018-11-20T20:06:18.557Z,92.24
2018-11-20T20:09:09.500Z,92.07
2018-11-20T20:11:57.378Z,91.87
2018-11-20T20:14:50.650Z,91.89
2018-11-20T20:17:36.652Z,91.84
2018-11-20T20:20:33.435Z,92.07
2018-11-20T20:23:19.607Z,91.83
2018-11-20T20:26:13.211Z,91.42
2018-11-20T20:29:03.704Z,91.44
2018-11-20T20:31:43.616Z,91.50
2018-11-20T20:34:31.972Z,91.44
2018-11-20T20:37:25.321Z,91.31
2018-11-20T20:40:11.367Z,91.27
2018-11-20T20:42:57.263Z,90.92
2018-11-20T20:45:41.900Z,90.90
2018-11-20T20:48:30.413Z,90.92
2018-11-20T20:51:18.119Z,90.69
2018-11-20T20:54:18.423Z,91.24
2018-11-20T20:57:04.495Z,91.06
2018-11-20T21:00:06.878Z,91.34
2018-11-20T21:02:58.040Z,90.67
2018-11-20T21:05:45.645Z,91.05
2018-11-20T21:08:36.513Z,90.51
2018-11-20T21:11:22.778Z,90.55
2018-11-20T21:14:12.945Z,90.68
2018-11-20T21:16:58.806Z,90.79
2018-11-20T21:20:01.717Z,90.29
2018-11-20T21:22:47.917Z,90.16
2018-11-20T21:25:34.339Z,90.50
2018-11-20T21:28:13.613Z,90.23
2018-11-20T21:31:05.205Z,90.36
2018-11-20T21:33:51.513Z,90.48
2018-11-20T21:36:51.477Z,90.33
2018-11-20T21:39:47.998Z,90.14
2018-11-20T21:42:41.843Z,90.51
2018-11-20T21:45:27.607Z,90.41
2018-11-20T21:48:17.527Z,89.98
2018-11-20T21:51:06.228Z,89.60
2018-11-20T21:53:44.434Z,89.44
2018-11-20T21:56:43.702Z,89.50
2018-11-20T21:59:41.250Z,89.67
2018-11-20T22:02:27.254Z,89.92
2018-11-20T22:05:13.240Z,89.31
2018-11-20T22:08:00.903Z,89.25
2018-11-20T22:10:54.264Z,89.28
2018-11-20T22:13:54.069Z,89.51
2018-11-20T22:16:40.127Z,89.65
2018-11-20T22:19:39.264Z,89.30
2018-11-20T22:22:32.441Z,89.30
2018-11-20T22:25:22.921Z,89.54
2018-11-20T22:28:18.912Z,89.24
2018-11-20T22:30:54.183Z,89.49
2018-11-20T22:33:50.620Z,89.44
2018-11-20T22:36:44.750Z,88.91
2018-11-20T22:39:47.149Z,88.53
2018-11-20T22:42:53.101Z,88.75
2018-11-20T22:45:41.141Z,88.50
2018-11-20T22:48:40.664Z,88.63
2018-11-20T22:51:31.135Z,88.32
2018-11-20T22:54:17.075Z,87.79
2018-11-20T22:57:02.921Z,87.89
2018-11-20T22:59:49.186Z,87.73
2018-11-20T23:02:51.682Z,87.94
2018-11-20T23:05:36.289Z,88.19
2018-11-20T23:08:05.005Z,88.06
2018-11-20T23:10:33.473Z,88.03
2018-11-20T23:13:01.973Z,88.00
2018-11-20T23:15:30.435Z,87.97
2018-11-20T23:17:59.037Z,87.60
2018-11-20T23:20:27.512Z,87.73
2018-11-20T23:22:56.070Z,87.88
2018-11-20T23:25:24.963Z,87.86
2018-11-20T23:27:53.402Z,87.37
2018-11-20T23:30:21.924Z,87.52
2018-11-20T23:32:50.422Z,87.50
2018-11-20T23:35:18.911Z,87.34
2018-11-20T23:37:47.584Z,87.49
2018-11-20T23:40:16.232Z,87.14
2018-11-20T23:42:44.736Z,87.55
2018-11-20T23:45:14.742Z,87.50
2018-11-20T23:47:43.192Z,87.47
2018-11-20T23:50:13.330Z,86.93
2018-11-20T23:52:42.580Z,87.19
2018-11-20T23:55:12.916Z,87.48
2018-11-20T23:57:41.649Z,87.88
